Latest Weather Observations for Rockhampton

IDQ60801

Issued at 9:32 am EST Friday 20 January 2017 (issued every 30 minutes, with the page automatically refreshed every 10 minutes)

About weather observations | Map of weather stations | Latest weather observations for QLD | Other Formats
Station Details ID: 039083 Name: ROCKHAMPTON AERO Lat: -23.38 Lon: 150.48 Height: 10.4 m
Data from the previous 72 hours. | See also: Recent months at Rockhampton
Date/Time
EST
Temp
°C
App
Temp
°C
Dew
Point
°C
Rel
Hum
%
Delta-T
°C
Wind Press
QNH
hPa
Press
MSL
hPa
Rain since
9am
mm
Dir  Spd
km/h
Gust
km/h
Spd
kts
Gust
kts
20/09:00am 30.5 31.8 20.9 56 6.4 NW 15 20 8 11 1010.2 1010.1 0.0
20/08:30am 29.8 30.8 21.0 59 5.9 NNW 17 24 9 13 1010.3 1010.2 0.0
20/08:00am 28.8 30.8 21.5 64 4.9 N 13 20 7 11 1010.5 1010.4 0.0
20/07:30am 28.2 30.7 22.4 71 3.9 N 13 19 7 10 1010.3 1010.2 0.0
20/07:00am 27.4 31.2 22.7 75 3.2 NNW 7 11 4 6 1010.2 1010.1 0.0
20/06:30am 26.2 30.1 23.0 82 2.2 NNW 7 9 4 5 1009.6 1009.5 0.0
20/06:00am 25.4 30.6 22.9 86 1.7 CALM 0 0 0 0 1009.3 1009.2 0.0
20/05:30am 24.9 28.7 22.8 88 1.4 N 7 9 4 5 1008.7 1008.6 0.0
20/05:00am 25.1 30.0 23.0 88 1.4 NE 2 6 1 3 1008.5 1008.4 0.0
20/04:30am 25.1 29.7 23.2 89 1.3 N 4 6 2 3 1008.3 1008.2 0.0
20/04:00am 25.2 29.0 22.8 86 1.6 N 7 9 4 5 1008.1 1008.0 0.0
20/03:30am 25.5 29.0 22.8 85 1.8 NW 9 11 5 6 1008.2 1008.1 0.0
20/03:00am 25.6 29.2 23.1 86 1.7 N 9 11 5 6 1008.3 1008.2 0.0
20/02:30am 26.3 29.6 23.2 83 2.1 NNE 11 13 6 7 1008.5 1008.4 0.0
20/02:00am 26.1 30.0 23.0 83 2.1 N 7 9 4 5 1008.7 1008.6 0.0
20/01:30am 26.5 30.5 22.7 79 2.6 NNE 6 7 3 4 1008.9 1008.8 0.0
20/01:00am 26.4 29.6 22.4 78 2.7 NNE 9 11 5 6 1008.8 1008.7 0.0
20/12:30am 26.7 29.7 21.9 75 3.2 NNE 9 13 5 7 1009.0 1008.9 0.0
20/12:00am 26.9 29.6 21.3 71 3.7 NE 9 17 5 9 1009.1 1009.0 0.0
 
Date/Time
EST
Temp
°C
App
Temp
°C
Dew
Point
°C
Rel
Hum
%
Delta-T
°C
Wind Press
QNH
hPa
Press
MSL
hPa
Rain since
9am
mm
Dir  Spd
km/h
Gust
km/h
Spd
kts
Gust
kts
19/11:30pm 26.8 30.4 22.0 75 3.2 E 6 9 3 5 1008.9 1008.8 0.0
19/11:00pm 27.3 30.8 21.9 72 3.6 NNE 6 7 3 4 1008.9 1008.8 0.0
19/10:30pm 28.4 29.8 20.4 62 5.3 N 13 17 7 9 1009.0 1008.9 0.0
19/10:00pm 27.2 31.9 23.3 79 2.7 W 4 7 2 4 1009.0 1008.9 0.0
19/09:30pm 27.6 31.4 23.4 78 2.9 SW 9 11 5 6 1008.7 1008.6 0.0
19/09:00pm 28.5 32.4 22.9 71 3.8 SE 7 13 4 7 1008.1 1008.0 0.0
19/08:30pm 29.3 31.6 24.1 73 3.6 NNE 19 24 10 13 1007.5 1007.4 0.0
19/08:00pm 29.8 31.8 23.6 69 4.3 NNE 19 24 10 13 1007.2 1007.1 0.0
19/07:30pm 30.7 32.3 22.2 60 5.8 NNE 17 20 9 11 1006.6 1006.5 0.0
19/07:00pm 31.4 32.0 21.0 54 7.0 NNE 19 24 10 13 1006.2 1006.1 0.0
19/06:30pm 32.6 33.8 21.5 52 7.5 N 17 24 9 13 1005.6 1005.5 0.0
19/06:00pm 33.9 34.2 20.7 46 8.9 NNE 20 30 11 16 1005.3 1005.2 0.0
19/05:30pm 35.1 34.5 19.8 40 10.2 NNE 22 28 12 15 1005.0 1004.9 0.0
19/05:00pm 36.0 35.5 21.5 43 9.9 NNE 26 32 14 17 1004.8 1004.7 0.0
19/04:30pm 36.7 37.4 21.5 41 10.4 NNE 20 28 11 15 1004.8 1004.7 0.0
19/04:00pm 36.7 36.5 20.6 39 10.9 N 22 30 12 16 1004.8 1004.7 0.0
19/03:30pm 37.3 38.4 21.2 39 11.0 NE 17 32 9 17 1005.1 1005.0 0.0
19/03:00pm 38.0 38.4 16.4 28 13.9 ENE 9 20 5 11 1005.5 1005.4 0.0
19/02:30pm 38.1 39.3 17.4 29 13.5 NW 7 17 4 9 1006.1 1006.0 0.0
19/02:00pm 37.5 38.7 18.2 32 12.7 W 9 24 5 13 1006.6 1006.5 0.0
19/01:30pm 37.6 39.4 18.7 33 12.5 NNW 7 19 4 10 1007.3 1007.2 0.0
19/01:00pm 36.9 37.7 19.9 37 11.4 WNW 15 32 8 17 1007.6 1007.5 0.0
19/12:30pm 36.5 38.3 20.3 38 10.9 NW 11 24 6 13 1008.2 1008.1 0.0
19/12:00pm 35.6 37.4 20.4 41 10.2 NNW 11 20 6 11 1008.8 1008.7 0.0
19/11:30am 34.2 35.9 20.1 43 9.4 W 11 20 6 11 1009.4 1009.3 0.0
19/11:00am 33.8 35.0 20.0 44 9.2 W 13 20 7 11 1009.7 1009.6 0.0
19/10:30am 32.3 34.2 20.6 50 7.8 NW 11 17 6 9 1010.2 1010.1 0.0
19/10:00am 31.6 33.2 20.7 52 7.3 WNW 13 20 7 11 1010.5 1010.4 0.0
19/09:30am 30.3 31.8 21.2 58 6.1 WSW 15 22 8 12 1011.0 1010.9 0.0
19/09:00am 29.6 31.3 21.7 62 5.3 WNW 15 22 8 12 1011.2 1011.1 0.0
19/08:30am 28.7 30.3 22.2 68 4.4 WNW 17 24 9 13 1011.3 1011.2 0.0
19/08:00am 27.5 30.2 22.9 76 3.1 NNW 13 19 7 10 1011.3 1011.2 0.0
19/07:30am 26.5 29.6 22.8 80 2.5 N 11 17 6 9 1011.3 1011.2 0.0
19/07:00am 25.1 29.1 22.7 86 1.6 NNW 6 9 3 5 1011.0 1010.9 0.0
19/06:30am 24.1 28.6 22.3 90 1.2 NW 2 7 1 4 1011.1 1011.0 0.0
19/06:00am 22.9 26.3 22.0 95 0.6 NW 7 9 4 5 1010.5 1010.4 0.0
19/05:30am 22.7 26.2 21.9 95 0.5 WNW 6 7 3 4 1010.4 1010.3 0.0
19/05:00am 22.9 26.2 21.8 93 0.7 W 7 9 4 5 1010.0 1009.9 0.0
19/04:30am 23.9 27.4 22.1 90 1.2 NNW 7 9 4 5 1009.9 1009.8 0.0
19/04:00am 23.6 27.9 21.9 90 1.1 NNW 2 7 1 4 1009.8 1009.7 0.0
19/03:30am 24.1 27.8 22.2 89 1.3 N 6 9 3 5 1009.8 1009.7 0.0
19/03:00am 24.0 27.5 22.1 89 1.3 N 7 9 4 5 1009.9 1009.8 0.0
19/02:30am 24.1 27.5 22.0 88 1.4 N 7 9 4 5 1009.9 1009.8 0.0
19/02:00am 24.6 27.6 21.9 85 1.8 N 9 11 5 6 1010.2 1010.1 0.0
19/01:30am 24.8 27.8 22.0 84 1.9 NNE 9 11 5 6 1010.3 1010.2 0.0
19/01:00am 24.8 27.5 22.1 85 1.8 NNE 11 13 6 7 1010.5 1010.4 0.0
19/12:30am 25.3 28.3 22.0 82 2.2 NNE 9 11 5 6 1010.8 1010.7 0.0
19/12:00am 25.3 28.0 22.2 83 2.1 N 11 13 6 7 1011.1 1011.0 0.0
 
Date/Time
EST
Temp
°C
App
Temp
°C
Dew
Point
°C
Rel
Hum
%
Delta-T
°C
Wind Press
QNH
hPa
Press
MSL
hPa
Rain since
9am
mm
Dir  Spd
km/h
Gust
km/h
Spd
kts
Gust
kts
18/11:30pm 25.9 28.3 22.2 80 2.5 NNW 13 15 7 8 1011.1 1011.0 0.0
18/11:00pm 26.2 29.2 22.0 77 2.8 NNW 9 11 5 6 1011.4 1011.3 0.0
18/10:30pm 26.4 28.8 22.2 78 2.8 NNE 13 17 7 9 1011.5 1011.4 0.0
18/10:00pm 26.4 28.7 22.1 77 2.9 NNE 13 17 7 9 1011.6 1011.5 0.0
18/09:30pm 26.7 28.1 21.9 75 3.2 NNE 17 20 9 11 1011.4 1011.3 0.0
18/09:00pm 26.9 27.9 21.8 73 3.4 NNE 19 24 10 13 1011.2 1011.1 0.0
18/08:30pm 27.2 28.2 21.8 72 3.6 NNE 19 24 10 13 1011.0 1010.9 0.0
18/08:00pm 27.7 28.6 21.6 69 4.1 N 19 26 10 14 1010.8 1010.7 0.0
18/07:30pm 28.2 29.6 21.0 65 4.8 N 15 24 8 13 1010.3 1010.2 0.0
18/07:00pm 28.9 29.7 20.6 61 5.5 NNE 17 22 9 12 1010.0 1009.9 0.0
18/06:30pm 29.5 29.2 20.4 58 6.0 NNE 22 30 12 16 1009.8 1009.7 0.0
18/06:00pm 31.0 31.5 20.8 54 6.8 NNE 19 24 10 13 1009.7 1009.6 0.0
18/05:30pm 32.4 32.4 20.2 48 8.1 NNE 20 30 11 16 1009.3 1009.2 0.0
18/05:00pm 33.2 33.8 21.0 48 8.2 NE 19 24 10 13 1009.4 1009.3 0.0
18/04:30pm 33.8 35.3 20.5 45 8.9 E 13 20 7 11 1009.5 1009.4 0.0
18/04:00pm 33.4 35.0 20.7 47 8.5 E 13 24 7 13 1009.6 1009.5 0.0
18/03:30pm 35.1 37.9 21.6 45 9.2 NE 9 15 5 8 1009.8 1009.7 0.0
18/03:00pm 34.7 35.9 19.8 41 9.9 SE 13 24 7 13 1010.1 1010.0 0.0
18/02:30pm 34.6 35.3 18.9 39 10.3 SSW 13 19 7 10 1010.4 1010.3 0.0
18/02:00pm 34.8 36.8 19.2 39 10.3 E 7 13 4 7 1010.8 1010.7 0.0
18/01:30pm 33.5 33.9 18.1 40 10.0 SSE 13 19 7 10 1011.3 1011.2 0.0
18/01:00pm 33.3 34.0 18.0 40 9.9 S 11 17 6 9 1011.7 1011.6 0.0
18/12:30pm 33.2 34.9 18.6 42 9.5 ESE 7 15 4 8 1012.2 1012.1 0.0
18/12:00pm 32.5 33.1 18.5 43 9.1 SSW 13 20 7 11 1012.7 1012.6 0.0
18/11:30am 32.9 34.4 19.0 43 9.1 N 9 19 5 10 1013.2 1013.1 0.0
18/11:00am 32.1 34.3 20.4 50 7.8 N 9 15 5 8 1013.6 1013.5 0.0
18/10:30am 31.4 32.9 19.0 47 8.1 ENE 9 15 5 8 1013.9 1013.8 0.0
18/10:00am 30.4 32.7 20.6 55 6.5 S 9 15 5 8 1014.3 1014.2 0.0
18/09:30am 28.9 32.3 20.9 62 5.3 SSW 4 7 2 4 1014.7 1014.6 0.0
18/09:00am 29.1 31.6 21.1 62 5.3 NNW 9 15 5 8 1014.7 1014.6 0.0
18/08:30am 28.2 31.8 22.0 69 4.2 E 6 15 3 8 1014.8 1014.7 0.0
18/08:00am 27.6 30.9 22.6 74 3.4 ESE 9 15 5 8 1014.9 1014.8 0.0
18/07:52am 27.1 29.8 22.2 74 3.3 SE 11 13 6 7 1014.9 1014.8 0.0
18/07:30am 27.0 30.1 22.1 74 3.3 SE 9 13 5 7 1014.8 1014.7 0.0
18/07:00am 26.0 28.9 21.8 77 2.8 SE 9 13 5 7 1014.7 1014.6 0.0
18/06:30am 24.6 27.8 21.6 83 2.0 SE 7 11 4 6 1014.4 1014.3 0.0
18/06:00am 23.4 26.7 21.4 88 1.3 SSE 6 7 3 4 1014.1 1014.0 0.0
18/05:30am 23.1 27.1 21.3 90 1.2 SSE 2 7 1 4 1013.6 1013.5 0.0
18/05:00am 23.4 26.7 21.4 88 1.3 SSE 6 7 3 4 1013.2 1013.1 0.0
18/04:30am 23.5 26.6 21.4 88 1.4 S 7 11 4 6 1012.9 1012.8 0.0
18/04:00am 23.5 26.6 21.5 88 1.3 SSE 7 9 4 5 1012.6 1012.5 0.0
18/03:30am 23.6 26.8 21.6 88 1.3 SE 7 11 4 6 1012.7 1012.6 0.0
18/03:00am 23.9 26.7 21.5 86 1.6 SE 9 11 5 6 1012.8 1012.7 0.0
18/02:30am 24.1 26.9 21.5 85 1.7 SE 9 15 5 8 1013.0 1012.9 0.0
18/02:00am 24.0 26.8 21.6 86 1.6 SE 9 13 5 7 1013.3 1013.2 0.0
18/01:30am 23.9 26.7 21.6 87 1.5 ESE 9 13 5 7 1013.7 1013.6 0.0
18/01:00am 24.1 27.0 21.8 87 1.5 ESE 9 15 5 8 1013.9 1013.8 0.0
18/12:30am 24.2 27.1 21.8 86 1.6 ESE 9 13 5 7 1014.2 1014.1 0.0
18/12:00am 24.3 27.3 21.3 83 2.0 ESE 7 11 4 6 1014.6 1014.5 0.0
 
Date/Time
EST
Temp
°C
App
Temp
°C
Dew
Point
°C
Rel
Hum
%
Delta-T
°C
Wind Press
QNH
hPa
Press
MSL
hPa
Rain since
9am
mm
Dir  Spd
km/h
Gust
km/h
Spd
kts
Gust
kts
17/11:30pm 24.7 27.7 21.2 81 2.3 ESE 7 9 4 5 1014.9 1014.8 0.0
17/11:00pm 24.8 28.1 21.5 82 2.2 ESE 6 7 3 4 1015.0 1014.9 0.0
17/10:30pm 25.1 27.5 21.5 80 2.4 ESE 11 15 6 8 1015.1 1015.0 0.0
17/10:00pm 25.3 27.6 21.4 79 2.6 ESE 11 17 6 9 1015.2 1015.1 0.0
17/09:30pm 25.8 28.1 21.3 76 3.0 ESE 11 17 6 9 1015.2 1015.1 0.0
17/09:00pm 26.4 28.6 21.1 72 3.5 E 11 15 6 8 1015.0 1014.9 0.0
17/08:30pm 26.5 29.0 21.7 75 3.2 E 11 17 6 9 1014.9 1014.8 0.0
17/08:00pm 26.6 29.4 22.3 77 2.9 E 11 15 6 8 1014.8 1014.7 0.0
17/07:30pm 27.0 28.8 20.3 66 4.4 E 11 19 6 10 1014.4 1014.3 0.0
17/07:00pm 27.7 28.6 19.2 60 5.5 E 13 20 7 11 1013.9 1013.8 0.0
17/06:30pm 28.6 28.1 17.7 51 6.9 E 17 26 9 14 1013.7 1013.6 0.0
17/06:00pm 29.5 28.8 17.3 47 7.7 E 17 28 9 15 1013.4 1013.3 0.0
17/05:30pm 30.2 29.5 17.4 46 8.1 ENE 17 24 9 13 1013.0 1012.9 0.0
17/05:00pm 31.2 30.5 18.3 46 8.3 ENE 19 28 10 15 1012.8 1012.7 0.0
17/04:30pm 31.4 31.1 18.2 45 8.5 E 17 24 9 13 1012.5 1012.4 0.0
17/04:00pm 32.1 31.8 18.3 44 8.9 ENE 17 24 9 13 1012.4 1012.3 0.0
17/03:30pm 32.0 31.8 18.6 45 8.7 ENE 17 30 9 16 1012.6 1012.5 0.0
17/03:00pm 32.3 32.5 19.4 46 8.5 ESE 17 28 9 15 1012.8 1012.7 0.0
17/02:30pm 32.1 32.5 19.1 46 8.5 E 15 26 8 14 1013.2 1013.1 0.0
17/02:00pm 32.6 33.5 19.2 45 8.8 E 13 26 7 14 1013.3 1013.2 0.0
17/01:30pm 32.7 33.1 18.9 44 9.0 E 15 22 8 12 1013.7 1013.6 0.0
17/01:00pm 32.8 33.6 19.0 44 9.0 ESE 13 20 7 11 1014.1 1014.0 0.0
17/12:30pm 31.4 31.1 18.2 45 8.5 ENE 17 26 9 14 1014.5 1014.4 0.0
17/12:00pm 32.0 32.4 19.1 46 8.4 NE 15 26 8 14 1014.8 1014.7 0.0
17/11:30am 31.4 30.8 17.6 43 8.8 E 17 24 9 13 1015.1 1015.0 0.0
17/11:00am 31.6 31.8 19.4 48 8.0 ENE 17 26 9 14 1015.3 1015.2 0.0
17/10:30am 30.6 30.9 19.6 51 7.2 E 17 24 9 13 1015.4 1015.3 0.0
17/10:00am 30.1 30.7 19.5 53 6.9 ENE 15 22 8 12 1015.6 1015.5 0.0

Other Formats:

Comma delimited format used in spreadsheet applications
http://www.bom.gov.au/fwo/IDQ60801/IDQ60801.94374.axf

JavaScript Object Notation format (JSON) in row-major order
http://www.bom.gov.au/fwo/IDQ60801/IDQ60801.94374.json